Wetterdaten: aktuell Sonntag, 24.03.2019 19:00
Datum Zeit Temp. A. Feuchte A. Luftdruck Regen Wind Richtung Richtung Taupunkt Windchill Windben
24.03.2019 19:00 11,7 C 57 % 1023,5 hPa 0,0 l/m 3,9 km/h (1 Bft) N-NW 330 3,5 C 11,7 C 8,0 km/h (2 Bft)
24.03.2019 18:55 11,8 C 57 % 1023,4 hPa 0,0 l/m 3,4 km/h (1 Bft) NW 322 3,6 C 11,8 C 6,4 km/h (2 Bft)
24.03.2019 18:50 11,8 C 57 % 1023,3 hPa 0,0 l/m 4,7 km/h (1 Bft) N-NW 343 3,6 C 11,8 C 8,0 km/h (2 Bft)
24.03.2019 18:45 11,9 C 57 % 1023,3 hPa 0,0 l/m 5,2 km/h (1 Bft) N-NW 329 3,7 C 11,9 C 8,0 km/h (2 Bft)
24.03.2019 18:40 12,1 C 57 % 1023,3 hPa 0,0 l/m 5,2 km/h (1 Bft) N-NW 341 3,8 C 12,1 C 9,7 km/h (2 Bft)
24.03.2019 18:35 12,2 C 56 % 1023,3 hPa 0,0 l/m 5,2 km/h (1 Bft) N-NW 337 3,7 C 12,2 C 8,0 km/h (2 Bft)
24.03.2019 18:30 12,2 C 57 % 1023,2 hPa 0,0 l/m 4,9 km/h (1 Bft) N 350 3,9 C 12,2 C 9,7 km/h (2 Bft)
24.03.2019 18:25 12,3 C 56 % 1023,0 hPa 0,0 l/m 4,4 km/h (1 Bft) N-NW 348 3,8 C 12,3 C 9,7 km/h (2 Bft)
24.03.2019 18:20 12,4 C 57 % 1023,0 hPa 0,0 l/m 6,3 km/h (2 Bft) NW 311 4,1 C 12,4 C 9,7 km/h (2 Bft)
24.03.2019 18:15 12,6 C 57 % 1023,1 hPa 0,0 l/m 5,5 km/h (1 Bft) NW 323 4,3 C 12,6 C 12,9 km/h (3 Bft)
24.03.2019 18:10 12,6 C 57 % 1023,0 hPa 0,0 l/m 5,2 km/h (1 Bft) N-NW 333 4,3 C 12,6 C 9,7 km/h (2 Bft)
24.03.2019 18:05 12,8 C 56 % 1022,9 hPa 0,0 l/m 5,2 km/h (1 Bft) NW 324 4,2 C 12,8 C 12,9 km/h (3 Bft)
24.03.2019 18:00 12,9 C 56 % 1022,9 hPa 0,0 l/m 3,8 km/h (1 Bft) N-NW 341 4,3 C 12,9 C 8,0 km/h (2 Bft)
24.03.2019 17:55 13,1 C 56 % 1022,8 hPa 0,0 l/m 4,7 km/h (1 Bft) N 355 4,5 C 13,1 C 9,7 km/h (2 Bft)
24.03.2019 17:50 13,2 C 55 % 1022,7 hPa 0,0 l/m 4,6 km/h (1 Bft) W-NW 300 4,4 C 13,2 C 9,7 km/h (2 Bft)
24.03.2019 17:45 13,3 C 55 % 1022,7 hPa 0,0 l/m 4,1 km/h (1 Bft) SW 230 4,5 C 13,3 C 8,0 km/h (2 Bft)
24.03.2019 17:40 13,4 C 55 % 1022,8 hPa 0,0 l/m 5,1 km/h (1 Bft) N-NW 347 4,5 C 13,4 C 9,7 km/h (2 Bft)
24.03.2019 17:35 13,4 C 56 % 1022,7 hPa 0,0 l/m 6,1 km/h (2 Bft) N-NW 333 4,8 C 13,4 C 14,5 km/h (3 Bft)
24.03.2019 17:30 13,5 C 57 % 1022,8 hPa 0,0 l/m 2,6 km/h (1 Bft) W-NW 298 5,2 C 13,5 C 6,4 km/h (2 Bft)
24.03.2019 17:25 13,6 C 57 % 1022,7 hPa 0,0 l/m 4,6 km/h (1 Bft) NW 304 5,2 C 13,6 C 8,0 km/h (2 Bft)
24.03.2019 17:20 13,7 C 58 % 1022,8 hPa 0,0 l/m 4,6 km/h (1 Bft) N-NW 339 5,6 C 13,7 C 12,9 km/h (3 Bft)
24.03.2019 17:15 13,7 C 58 % 1022,7 hPa 0,0 l/m 7,1 km/h (2 Bft) N 355 5,6 C 13,3 C 14,5 km/h (3 Bft)
24.03.2019 17:10 13,8 C 57 % 1022,7 hPa 0,0 l/m 4,4 km/h (1 Bft) N-NW 348 5,4 C 13,8 C 8,0 km/h (2 Bft)
24.03.2019 17:05 13,8 C 57 % 1022,7 hPa 0,0 l/m 3,4 km/h (1 Bft) N 360 5,4 C 13,8 C 9,7 km/h (2 Bft)
24.03.2019 17:00 13,8 C 58 % 1022,7 hPa 0,0 l/m 6,4 km/h (2 Bft) N-NW 338 5,7 C 13,8 C 16,1 km/h (3 Bft)
24.03.2019 16:55 13,9 C 57 % 1022,6 hPa 0,0 l/m 8,8 km/h (2 Bft) N 355 5,5 C 12,5 C 16,1 km/h (3 Bft)
24.03.2019 16:50 14,1 C 56 % 1022,6 hPa 0,0 l/m 4,0 km/h (1 Bft) N 355 5,5 C 14,1 C 9,7 km/h (2 Bft)
24.03.2019 16:45 14,1 C 56 % 1022,6 hPa 0,0 l/m 4,4 km/h (1 Bft) W-NW 295 5,5 C 14,1 C 9,7 km/h (2 Bft)
24.03.2019 16:40 14,1 C 57 % 1022,5 hPa 0,0 l/m 8,7 km/h (2 Bft) N 5 5,7 C 12,8 C 16,1 km/h (3 Bft)
24.03.2019 16:35 14,2 C 56 % 1022,6 hPa 0,0 l/m 4,0 km/h (1 Bft) N 351 5,6 C 14,2 C 14,5 km/h (3 Bft)
24.03.2019 16:30 14,2 C 56 % 1022,6 hPa 0,0 l/m 3,8 km/h (1 Bft) N-NW 327 5,6 C 14,2 C 12,9 km/h (3 Bft)
24.03.2019 16:25 14,2 C 56 % 1022,5 hPa 0,0 l/m 7,9 km/h (2 Bft) NW 323 5,6 C 13,3 C 16,1 km/h (3 Bft)
24.03.2019 16:20 14,3 C 57 % 1022,6 hPa 0,0 l/m 7,7 km/h (2 Bft) N 10 5,9 C 13,5 C 16,1 km/h (3 Bft)
24.03.2019 16:15 14,1 C 56 % 1022,5 hPa 0,0 l/m 6,5 km/h (2 Bft) N-NW 336 5,5 C 14,1 C 11,3 km/h (2 Bft)
24.03.2019 16:10 14,0 C 56 % 1022,6 hPa 0,0 l/m 10,2 km/h (2 Bft) N 5 5,4 C 11,9 C 19,3 km/h (3 Bft)
24.03.2019 16:05 14,1 C 58 % 1022,6 hPa 0,0 l/m 8,7 km/h (2 Bft) N 360 6,0 C 12,8 C 14,5 km/h (3 Bft)
24.03.2019 16:00 14,1 C 56 % 1022,5 hPa 0,0 l/m 8,5 km/h (2 Bft) N-NW 346 5,5 C 12,9 C 14,5 km/h (3 Bft)
24.03.2019 15:55 14,2 C 56 % 1022,6 hPa 0,0 l/m 8,3 km/h (2 Bft) N 9 5,6 C 13,1 C 20,9 km/h (4 Bft)
24.03.2019 15:50 14,3 C 55 % 1022,6 hPa 0,0 l/m 8,9 km/h (2 Bft) NW 323 5,4 C 12,9 C 19,3 km/h (3 Bft)
24.03.2019 15:45 14,4 C 55 % 1022,5 hPa 0,0 l/m 6,2 km/h (2 Bft) N 360 5,5 C 14,4 C 12,9 km/h (3 Bft)
24.03.2019 15:40 14,4 C 55 % 1022,5 hPa 0,0 l/m 7,4 km/h (2 Bft) N 355 5,5 C 13,8 C 17,7 km/h (3 Bft)
24.03.2019 15:35 14,6 C 54 % 1022,6 hPa 0,0 l/m 10,6 km/h (2 Bft) N 355 5,4 C 12,4 C 22,5 km/h (4 Bft)
24.03.2019 15:30 14,7 C 53 % 1022,6 hPa 0,0 l/m 6,8 km/h (2 Bft) N 351 5,2 C 14,5 C 14,5 km/h (3 Bft)
24.03.2019 15:25 14,8 C 52 % 1022,6 hPa 0,0 l/m 7,0 km/h (2 Bft) N-NW 338 5,0 C 14,5 C 16,1 km/h (3 Bft)
24.03.2019 15:20 14,7 C 53 % 1022,6 hPa 0,0 l/m 6,5 km/h (2 Bft) N 355 5,2 C 14,7 C 14,5 km/h (3 Bft)
24.03.2019 15:15 14,7 C 51 % 1022,7 hPa 0,0 l/m 7,9 km/h (2 Bft) N-NW 336 4,7 C 13,8 C 16,1 km/h (3 Bft)
24.03.2019 15:10 14,6 C 52 % 1022,7 hPa 0,0 l/m 6,2 km/h (2 Bft) N 360 4,9 C 14,6 C 11,3 km/h (2 Bft)
24.03.2019 15:05 14,7 C 53 % 1022,7 hPa 0,0 l/m 6,1 km/h (2 Bft) NW 304 5,2 C 14,7 C 14,5 km/h (3 Bft)
24.03.2019 15:00 15,0 C 51 % 1022,8 hPa 0,0 l/m 5,8 km/h (2 Bft) N-NW 348 4,9 C 15,0 C 14,5 km/h (3 Bft)
24.03.2019 14:55 14,8 C 51 % 1022,9 hPa 0,0 l/m 5,6 km/h (1 Bft) N-NW 331 4,8 C 14,8 C 12,9 km/h (3 Bft)
24.03.2019 14:50 14,9 C 52 % 1022,9 hPa 0,0 l/m 5,4 km/h (1 Bft) N-NW 333 5,1 C 14,9 C 9,7 km/h (2 Bft)
24.03.2019 14:45 14,8 C 52 % 1022,9 hPa 0,0 l/m 6,5 km/h (2 Bft) N-NW 345 5,0 C 14,8 C 12,9 km/h (3 Bft)
24.03.2019 14:40 14,9 C 51 % 1023,0 hPa 0,0 l/m 4,7 km/h (1 Bft) NW 317 4,9 C 14,9 C 9,7 km/h (2 Bft)
24.03.2019 14:35 14,9 C 51 % 1023,0 hPa 0,0 l/m 5,4 km/h (1 Bft) N 350 4,9 C 14,9 C 14,5 km/h (3 Bft)
24.03.2019 14:30 14,8 C 52 % 1023,0 hPa 0,0 l/m 4,0 km/h (1 Bft) NW 318 5,0 C 14,8 C 8,0 km/h (2 Bft)
24.03.2019 14:25 14,7 C 54 % 1023,1 hPa 0,0 l/m 3,5 km/h (1 Bft) N-NW 331 5,5 C 14,7 C 6,4 km/h (2 Bft)
24.03.2019 14:20 14,8 C 53 % 1023,1 hPa 0,0 l/m 4,2 km/h (1 Bft) N-NW 347 5,3 C 14,8 C 8,0 km/h (2 Bft)
24.03.2019 14:15 14,7 C 53 % 1023,2 hPa 0,0 l/m 4,0 km/h (1 Bft) NW 316 5,2 C 14,7 C 8,0 km/h (2 Bft)
24.03.2019 14:10 14,4 C 54 % 1023,2 hPa 0,0 l/m 6,1 km/h (2 Bft) N-NW 333 5,2 C 14,4 C 14,5 km/h (3 Bft)
24.03.2019 14:05 14,7 C 53 % 1023,3 hPa 0,0 l/m 5,4 km/h (1 Bft) N-NW 333 5,2 C 14,7 C 12,9 km/h (3 Bft)
24.03.2019 14:00 14,6 C 51 % 1023,4 hPa 0,0 l/m 5,2 km/h (1 Bft) NO 50 4,6 C 14,6 C 12,9 km/h (3 Bft)
24.03.2019 13:55 14,6 C 51 % 1023,4 hPa 0,0 l/m 6,5 km/h (2 Bft) N-NO 17 4,6 C 14,6 C 14,5 km/h (3 Bft)
24.03.2019 13:50 14,7 C 53 % 1023,4 hPa 0,0 l/m 4,4 km/h (1 Bft) N-NW 336 5,2 C 14,7 C 12,9 km/h (3 Bft)
24.03.2019 13:45 14,5 C 53 % 1023,5 hPa 0,0 l/m 4,6 km/h (1 Bft) N-NW 331 5,0 C 14,5 C 9,7 km/h (2 Bft)
24.03.2019 13:40 14,2 C 49 % 1023,5 hPa 0,0 l/m 6,8 km/h (2 Bft) N 355 3,6 C 14,0 C 14,5 km/h (3 Bft)
24.03.2019 13:35 14,3 C 51 % 1023,6 hPa 0,0 l/m 4,9 km/h (1 Bft) N-NW 333 4,3 C 14,3 C 14,5 km/h (3 Bft)
24.03.2019 13:30 14,7 C 51 % 1023,7 hPa 0,0 l/m 4,4 km/h (1 Bft) N-NW 347 4,7 C 14,7 C 9,7 km/h (2 Bft)
24.03.2019 13:25 14,2 C 54 % 1023,7 hPa 0,0 l/m 3,1 km/h (1 Bft) N-NW 338 5,0 C 14,2 C 6,4 km/h (2 Bft)
24.03.2019 13:20 14,1 C 52 % 1023,7 hPa 0,0 l/m 6,3 km/h (2 Bft) N-NW 332 4,4 C 14,1 C 12,9 km/h (3 Bft)
24.03.2019 13:15 14,2 C 52 % 1023,7 hPa 0,0 l/m 2,9 km/h (1 Bft) N-NW 327 4,5 C 14,2 C 6,4 km/h (2 Bft)
24.03.2019 13:10 14,0 C 52 % 1023,7 hPa 0,0 l/m 4,6 km/h (1 Bft) N-NW 342 4,3 C 14,0 C 8,0 km/h (2 Bft)
24.03.2019 13:05 13,9 C 57 % 1023,8 hPa 0,0 l/m 3,2 km/h (1 Bft) N-NW 333 5,5 C 13,9 C 8,0 km/h (2 Bft)
24.03.2019 13:00 13,7 C 56 % 1023,9 hPa 0,0 l/m 4,6 km/h (1 Bft) NW 320 5,1 C 13,7 C 9,7 km/h (2 Bft)
24.03.2019 12:55 13,6 C 57 % 1024,0 hPa 0,0 l/m 4,0 km/h (1 Bft) N-NW 329 5,2 C 13,6 C 8,0 km/h (2 Bft)
24.03.2019 12:50 13,7 C 57 % 1024,0 hPa 0,0 l/m 2,9 km/h (1 Bft) NW 315 5,3 C 13,7 C 8,0 km/h (2 Bft)
24.03.2019 12:45 13,2 C 58 % 1024,0 hPa 0,0 l/m 5,1 km/h (1 Bft) NW 309 5,1 C 13,2 C 9,7 km/h (2 Bft)
24.03.2019 12:40 13,3 C 57 % 1024,0 hPa 0,0 l/m 3,6 km/h (1 Bft) N-NW 331 5,0 C 13,3 C 8,0 km/h (2 Bft)
24.03.2019 12:35 13,1 C 56 % 1024,1 hPa 0,0 l/m 4,5 km/h (1 Bft) N-NW 342 4,5 C 13,1 C 9,7 km/h (2 Bft)
24.03.2019 12:30 13,1 C 59 % 1024,0 hPa 0,0 l/m 3,1 km/h (1 Bft) N-NW 336 5,3 C 13,1 C 6,4 km/h (2 Bft)
24.03.2019 12:25 12,8 C 58 % 1024,1 hPa 0,0 l/m 5,3 km/h (1 Bft) N 355 4,7 C 12,8 C 9,7 km/h (2 Bft)
24.03.2019 12:20 12,9 C 59 % 1024,1 hPa 0,0 l/m 4,9 km/h (1 Bft) N-NW 348 5,1 C 12,9 C 9,7 km/h (2 Bft)
24.03.2019 12:15 13,1 C 58 % 1024,1 hPa 0,0 l/m 7,0 km/h (2 Bft) N-NW 346 5,0 C 12,7 C 14,5 km/h (3 Bft)
24.03.2019 12:10 13,4 C 60 % 1024,1 hPa 0,0 l/m 1,3 km/h (1 Bft) W-NW 299 5,8 C 13,4 C 3,2 km/h (1 Bft)
24.03.2019 12:05 12,8 C 62 % 1024,1 hPa 0,0 l/m 2,6 km/h (1 Bft) S 188 5,7 C 12,8 C 8,0 km/h (2 Bft)
24.03.2019 12:00 13,1 C 63 % 1024,1 hPa 0,0 l/m 3,5 km/h (1 Bft) S 187 6,2 C 13,1 C 9,7 km/h (2 Bft)
24.03.2019 11:55 12,8 C 62 % 1024,2 hPa 0,0 l/m 3,6 km/h (1 Bft) S 188 5,7 C 12,8 C 8,0 km/h (2 Bft)
24.03.2019 11:50 12,6 C 63 % 1024,2 hPa 0,0 l/m 4,5 km/h (1 Bft) S 191 5,7 C 12,6 C 11,3 km/h (2 Bft)
24.03.2019 11:45 12,2 C 63 % 1024,1 hPa 0,0 l/m 3,5 km/h (1 Bft) S 180 5,4 C 12,2 C 11,3 km/h (2 Bft)
24.03.2019 11:40 12,3 C 63 % 1024,2 hPa 0,0 l/m 4,4 km/h (1 Bft) S 182 5,5 C 12,3 C 9,7 km/h (2 Bft)
24.03.2019 11:35 11,9 C 65 % 1024,2 hPa 0,0 l/m 6,2 km/h (2 Bft) S 169 5,5 C 11,9 C 9,7 km/h (2 Bft)
24.03.2019 11:30 11,9 C 65 % 1024,3 hPa 0,0 l/m 4,2 km/h (1 Bft) S 182 5,5 C 11,9 C 14,5 km/h (3 Bft)
24.03.2019 11:25 11,7 C 65 % 1024,3 hPa 0,0 l/m 5,2 km/h (1 Bft) S 182 5,3 C 11,7 C 9,7 km/h (2 Bft)
24.03.2019 11:20 11,3 C 65 % 1024,4 hPa 0,0 l/m 7,7 km/h (2 Bft) S 175 5,0 C 10,4 C 11,3 km/h (2 Bft)
24.03.2019 11:15 11,2 C 67 % 1024,3 hPa 0,0 l/m 6,2 km/h (2 Bft) S 184 5,3 C 11,2 C 11,3 km/h (2 Bft)
24.03.2019 11:10 11,3 C 67 % 1024,3 hPa 0,0 l/m 4,1 km/h (1 Bft) S 178 5,4 C 11,3 C 9,7 km/h (2 Bft)
24.03.2019 11:05 10,9 C 67 % 1024,5 hPa 0,0 l/m 5,4 km/h (1 Bft) S 182 5,0 C 10,9 C 9,7 km/h (2 Bft)
24.03.2019 11:00 10,9 C 67 % 1024,4 hPa 0,0 l/m 4,1 km/h (1 Bft) S 184 5,0 C 10,9 C 8,0 km/h (2 Bft)
24.03.2019 10:55 10,6 C 69 % 1024,4 hPa 0,0 l/m 2,3 km/h (1 Bft) S 188 5,2 C 10,6 C 8,0 km/h (2 Bft)
24.03.2019 10:50 10,4 C 71 % 1024,6 hPa 0,0 l/m 4,9 km/h (1 Bft) S 183 5,4 C 10,4 C 9,7 km/h (2 Bft)
24.03.2019 10:45 10,6 C 69 % 1024,6 hPa 0,0 l/m 6,0 km/h (2 Bft) S 180 5,2 C 10,6 C 11,3 km/h (2 Bft)
_ Min-Zeit 06:45 13:40 15:40 - 02:00 - - 06:40 06:40 02:00
Minimum _ 3,1 C 49 % 1022,5 hPa - 0,0 km/h (0 Bft) - - 0,8 C 3,2 C 0,0 km/h (0 Bft)
_ Max-Zeit 14:40 07:25 00:00 00:00 15:35 - - 12:00 15:00 15:35
Maximum _ 15,0 C 88 % 1025,9 hPa 0,0 l/m 10,6 km/h
N (2 Bft)
- - 6,2 C 15,0 C 22,5 km/h
N (4 Bft)
Durchschnitt _ 9,3 C 68 % 1024,2 hPa #0,0 l/m 3,5 km/h (1 Bft) N-NW - 3,5 C 9,2 C 7,3 km/h (2 Bft)